createdAt,value
2023-01-19T00:00:55.456Z,95293.19
2023-01-19T00:03:22.326Z,95300.03
2023-01-19T00:05:49.251Z,95299.09
2023-01-19T00:08:16.625Z,95303.59
2023-01-19T00:10:51.081Z,95306.38
2023-01-19T00:13:18.020Z,95312.69
2023-01-19T00:15:46.010Z,95314.88
2023-01-19T00:18:12.849Z,95324.00
2023-01-19T00:20:40.862Z,95329.06
2023-01-19T00:23:08.354Z,95329.22
2023-01-19T00:25:36.283Z,95323.06
2023-01-19T00:28:03.236Z,95330.66
2023-01-19T00:30:30.517Z,95339.56
2023-01-19T00:32:57.348Z,95345.75
2023-01-19T00:35:24.213Z,95347.38
2023-01-19T00:37:51.154Z,95353.34
2023-01-19T00:40:18.537Z,95354.50
2023-01-19T00:42:48.200Z,95360.16
2023-01-19T00:45:21.366Z,95360.53
2023-01-19T00:47:50.297Z,95348.78
2023-01-19T00:50:17.309Z,95358.63
2023-01-19T00:52:45.545Z,95364.28
2023-01-19T00:55:14.824Z,95367.81
2023-01-19T00:57:42.793Z,95373.34
2023-01-19T01:00:16.981Z,95377.91
2023-01-19T01:02:44.810Z,95372.56
2023-01-19T01:05:12.624Z,95388.72
2023-01-19T01:07:41.312Z,95383.72
2023-01-19T01:10:24.435Z,95396.69
2023-01-19T01:12:56.618Z,95387.00
2023-01-19T01:15:39.416Z,95390.25
2023-01-19T01:18:06.221Z,95390.25
2023-01-19T01:20:34.768Z,95399.16
2023-01-19T01:23:02.156Z,95398.03
2023-01-19T01:25:30.959Z,95398.09
2023-01-19T01:27:57.871Z,95394.84
2023-01-19T01:30:24.735Z,95400.03
2023-01-19T01:32:51.543Z,95396.13
2023-01-19T01:35:18.606Z,95399.50
2023-01-19T01:37:45.637Z,95397.38
2023-01-19T01:40:16.351Z,95398.41
2023-01-19T01:42:44.235Z,95406.31
2023-01-19T01:45:39.438Z,95408.78
2023-01-19T01:48:27.974Z,95405.50
2023-01-19T01:51:19.494Z,95409.56
2023-01-19T01:53:52.390Z,95405.88
2023-01-19T01:56:26.183Z,95408.75
2023-01-19T01:58:53.439Z,95405.19
2023-01-19T02:01:38.924Z,95409.56
2023-01-19T02:04:05.842Z,95415.22
2023-01-19T02:06:32.693Z,95422.97
2023-01-19T02:09:27.401Z,95417.31
2023-01-19T02:12:13.897Z,95417.44
2023-01-19T02:14:40.694Z,95423.13
2023-01-19T02:17:07.887Z,95422.63
2023-01-19T02:19:42.378Z,95428.81
2023-01-19T02:22:51.270Z,95430.91
2023-01-19T02:25:20.140Z,95434.31
2023-01-19T02:27:48.042Z,95429.78
2023-01-19T02:30:16.778Z,95431.09
2023-01-19T02:32:43.869Z,95435.31
2023-01-19T02:35:12.006Z,95435.63
2023-01-19T02:37:40.602Z,95438.56
2023-01-19T02:40:12.997Z,95438.53
2023-01-19T02:42:52.317Z,95434.31
2023-01-19T02:45:22.932Z,95442.94
2023-01-19T02:47:52.711Z,95442.72
2023-01-19T02:50:49.118Z,95452.63
2023-01-19T02:53:43.476Z,95448.88
2023-01-19T02:56:24.768Z,95451.16
2023-01-19T02:59:30.563Z,95444.03
2023-01-19T03:02:20.548Z,95454.72
2023-01-19T03:05:19.701Z,95451.81
2023-01-19T03:08:12.946Z,95446.31
2023-01-19T03:10:54.522Z,95458.94
2023-01-19T03:13:41.773Z,95449.88
2023-01-19T03:16:22.577Z,95448.72
2023-01-19T03:19:24.209Z,95435.31
2023-01-19T03:22:01.705Z,95447.91
2023-01-19T03:24:37.942Z,95449.88
2023-01-19T03:27:13.666Z,95449.03
2023-01-19T03:29:47.436Z,95445.50
2023-01-19T03:32:18.048Z,95447.59
2023-01-19T03:34:48.889Z,95441.78
2023-01-19T03:37:17.713Z,95447.13
2023-01-19T03:39:44.614Z,95444.69
2023-01-19T03:42:17.981Z,95451.50
2023-01-19T03:44:50.421Z,95449.53
2023-01-19T03:47:18.104Z,95454.09
2023-01-19T03:49:47.083Z,95446.31
2023-01-19T03:52:14.119Z,95446.97
2023-01-19T03:54:41.202Z,95450.19
2023-01-19T03:57:08.267Z,95449.22
2023-01-19T03:59:35.068Z,95456.97
2023-01-19T04:02:02.303Z,95456.00
2023-01-19T04:04:29.175Z,95456.00
2023-01-19T04:06:56.046Z,95460.22
2023-01-19T04:09:22.968Z,95461.19
2023-01-19T04:11:49.837Z,95453.44
2023-01-19T04:14:16.825Z,95453.91
2023-01-19T04:16:43.642Z,95454.09
2023-01-19T04:19:10.459Z,95461.19
2023-01-19T04:21:37.272Z,95461.03
2023-01-19T04:24:04.186Z,95454.72
2023-01-19T04:26:30.986Z,95455.38
2023-01-19T04:28:58.379Z,95455.66
2023-01-19T04:31:25.295Z,95461.31
2023-01-19T04:33:52.186Z,95452.09
2023-01-19T04:36:19.024Z,95458.25
2023-01-19T04:38:46.623Z,95450.78
2023-01-19T04:41:13.524Z,95450.78
2023-01-19T04:43:40.876Z,95453.47
2023-01-19T04:46:07.781Z,95447.50
2023-01-19T04:48:34.905Z,95456.03
2023-01-19T04:51:01.679Z,95454.53
2023-01-19T04:53:28.542Z,95459.72
2023-01-19T04:55:55.549Z,95460.19
2023-01-19T04:58:23.054Z,95455.16
2023-01-19T05:00:51.132Z,95453.97
2023-01-19T05:03:19.278Z,95468.19
2023-01-19T05:05:46.621Z,95471.72
2023-01-19T05:08:13.629Z,95463.31
2023-01-19T05:10:40.549Z,95476.41
2023-01-19T05:13:07.403Z,95474.13
2023-01-19T05:15:34.190Z,95481.88
2023-01-19T05:18:01.091Z,95477.72
2023-01-19T05:20:27.944Z,95472.53
2023-01-19T05:22:54.848Z,95478.94
2023-01-19T05:25:21.744Z,95476.09
2023-01-19T05:27:48.621Z,95480.25
2023-01-19T05:30:15.876Z,95487.16
2023-01-19T05:32:42.767Z,95485.66
2023-01-19T05:35:10.153Z,95483.09
2023-01-19T05:37:37.121Z,95497.56
2023-01-19T05:40:04.671Z,95496.25
2023-01-19T05:42:32.909Z,95490.56
2023-01-19T05:45:00.215Z,95503.19
2023-01-19T05:47:29.432Z,95501.38
2023-01-19T05:49:56.302Z,95502.31
2023-01-19T05:52:24.926Z,95502.63
2023-01-19T05:54:52.159Z,95510.00
2023-01-19T05:57:19.141Z,95506.47
2023-01-19T05:59:45.999Z,95509.41
2023-01-19T06:02:13.047Z,95513.47
2023-01-19T06:04:39.883Z,95527.53
2023-01-19T06:07:07.133Z,95515.16
2023-01-19T06:09:34.123Z,95529.16
2023-01-19T06:12:01.014Z,95527.25
2023-01-19T06:14:27.941Z,95531.81
2023-01-19T06:16:54.801Z,95535.41
2023-01-19T06:19:21.581Z,95539.59
2023-01-19T06:21:52.089Z,95539.28
2023-01-19T06:24:19.342Z,95547.25
2023-01-19T06:26:46.287Z,95553.28
2023-01-19T06:29:13.735Z,95552.69
2023-01-19T06:31:41.935Z,95559.16
2023-01-19T06:34:09.314Z,95561.59
2023-01-19T06:36:36.740Z,95560.16
2023-01-19T06:39:05.869Z,95567.25
2023-01-19T06:41:33.969Z,95569.69
2023-01-19T06:44:01.493Z,95560.97
2023-01-19T06:46:29.787Z,95566.13
2023-01-19T06:48:57.069Z,95557.09
2023-01-19T06:51:24.404Z,95574.44
2023-01-19T06:53:51.277Z,95577.69
2023-01-19T06:56:18.352Z,95574.75
2023-01-19T06:58:48.149Z,95577.03
2023-01-19T07:01:15.218Z,95584.47
2023-01-19T07:03:42.295Z,95595.13
2023-01-19T07:06:09.269Z,95589.44
2023-01-19T07:08:37.719Z,95592.19
2023-01-19T07:11:23.657Z,95584.38
2023-01-19T07:13:57.896Z,95597.28
2023-01-19T07:16:25.382Z,95590.47
2023-01-19T07:18:52.280Z,95597.22
2023-01-19T07:21:19.316Z,95593.41
2023-01-19T07:23:49.941Z,95594.22
2023-01-19T07:26:21.030Z,95597.22
2023-01-19T07:28:48.652Z,95600.13
2023-01-19T07:31:15.988Z,95612.84
2023-01-19T07:33:42.946Z,95604.13
2023-01-19T07:36:10.235Z,95605.25
2023-01-19T07:38:37.073Z,95600.38
2023-01-19T07:41:06.885Z,95612.91
2023-01-19T07:43:34.430Z,95608.44
2023-01-19T07:46:03.886Z,95612.91
2023-01-19T07:48:30.894Z,95612.31
2023-01-19T07:51:05.343Z,95614.56
2023-01-19T07:53:32.868Z,95618.22
2023-01-19T07:55:59.795Z,95621.75
2023-01-19T07:58:27.579Z,95626.47
2023-01-19T08:00:54.693Z,95625.91
2023-01-19T08:03:21.721Z,95629.06
2023-01-19T08:05:53.110Z,95626.31
2023-01-19T08:08:20.427Z,95630.59
2023-01-19T08:10:50.956Z,95622.88
2023-01-19T08:13:18.558Z,95633.94
2023-01-19T08:15:45.453Z,95628.16
2023-01-19T08:18:14.702Z,95637.28
2023-01-19T08:20:41.683Z,95640.94
2023-01-19T08:23:08.843Z,95643.97
2023-01-19T08:25:45.219Z,95649.94
2023-01-19T08:28:15.396Z,95650.47
2023-01-19T08:30:46.273Z,95647.66
2023-01-19T08:33:13.928Z,95652.31
2023-01-19T08:35:43.463Z,95652.72
2023-01-19T08:38:10.841Z,95659.88
2023-01-19T08:40:40.456Z,95657.06
2023-01-19T08:43:14.007Z,95662.22
2023-01-19T08:45:48.109Z,95672.56
2023-01-19T08:48:18.647Z,95670.94
2023-01-19T08:50:49.816Z,95673.00
2023-01-19T08:53:17.834Z,95669.03
2023-01-19T08:55:44.664Z,95677.19
2023-01-19T08:58:11.500Z,95678.50
2023-01-19T09:00:39.470Z,95675.78
2023-01-19T09:03:09.105Z,95669.94
2023-01-19T09:05:38.922Z,95672.84
2023-01-19T09:08:10.067Z,95686.31
2023-01-19T09:10:38.057Z,95689.13
2023-01-19T09:13:11.478Z,95683.81
2023-01-19T09:15:39.787Z,95682.31
2023-01-19T09:18:10.422Z,95684.91
2023-01-19T09:20:39.033Z,95684.41
2023-01-19T09:23:06.592Z,95685.00
2023-01-19T09:25:33.455Z,95689.69
2023-01-19T09:28:02.414Z,95685.44
2023-01-19T09:30:29.503Z,95680.69
2023-01-19T09:32:58.049Z,95685.59
2023-01-19T09:35:26.198Z,95695.16
2023-01-19T09:37:53.066Z,95692.56
2023-01-19T09:40:21.082Z,95693.56
2023-01-19T09:42:57.320Z,95688.47
2023-01-19T09:46:00.647Z,95690.72
2023-01-19T09:48:45.785Z,95681.06
2023-01-19T09:51:28.040Z,95686.19
2023-01-19T09:54:16.648Z,95678.88
2023-01-19T09:56:45.781Z,95678.88
2023-01-19T09:59:25.002Z,95682.72
2023-01-19T10:02:19.737Z,95680.53
2023-01-19T10:05:04.248Z,95684.75
2023-01-19T10:07:54.336Z,95681.56
2023-01-19T10:10:31.415Z,95688.09
2023-01-19T10:13:12.976Z,95675.13
2023-01-19T10:15:53.175Z,95685.94
2023-01-19T10:18:35.754Z,95676.63
2023-01-19T10:21:11.364Z,95677.38
2023-01-19T10:24:18.315Z,95682.97
2023-01-19T10:26:54.526Z,95678.81
2023-01-19T10:29:38.167Z,95680.34
2023-01-19T10:32:17.266Z,95678.97
2023-01-19T10:34:44.379Z,95690.28
2023-01-19T10:37:17.130Z,95677.50
2023-01-19T10:39:53.226Z,95677.41
2023-01-19T10:42:20.425Z,95681.59
2023-01-19T10:44:47.362Z,95679.75
2023-01-19T10:47:20.437Z,95674.69
2023-01-19T10:49:48.597Z,95673.59
2023-01-19T10:52:34.081Z,95671.47
2023-01-19T10:55:06.250Z,95666.91
2023-01-19T10:57:40.763Z,95665.94
2023-01-19T11:00:43.135Z,95674.19
2023-01-19T11:03:23.359Z,95672.47
2023-01-19T11:05:51.032Z,95671.53
2023-01-19T11:08:30.220Z,95671.44
2023-01-19T11:11:04.467Z,95672.28
2023-01-19T11:13:32.444Z,95668.88
2023-01-19T11:16:29.598Z,95669.34
2023-01-19T11:18:58.608Z,95673.84
2023-01-19T11:21:28.022Z,95663.31
2023-01-19T11:24:05.418Z,95669.97
2023-01-19T11:26:49.485Z,95664.63
2023-01-19T11:29:26.840Z,95665.06
2023-01-19T11:31:55.370Z,95659.84
2023-01-19T11:34:32.712Z,95652.47
2023-01-19T11:37:08.880Z,95663.38
2023-01-19T11:39:58.739Z,95643.53
2023-01-19T11:42:28.544Z,95645.00
2023-01-19T11:45:06.476Z,95642.19
2023-01-19T11:47:52.613Z,95633.44
2023-01-19T11:50:39.328Z,95641.22
2023-01-19T11:53:34.283Z,95646.41
2023-01-19T11:56:14.491Z,95639.94
2023-01-19T11:58:46.828Z,95640.31
2023-01-19T12:01:31.573Z,95629.53
2023-01-19T12:04:11.324Z,95626.22
2023-01-19T12:06:44.497Z,95625.72
2023-01-19T12:09:42.573Z,95622.47
2023-01-19T12:12:29.485Z,95625.75
2023-01-19T12:15:11.153Z,95624.69
2023-01-19T12:17:47.583Z,95621.81
2023-01-19T12:20:39.130Z,95625.03
2023-01-19T12:23:33.528Z,95618.53
2023-01-19T12:26:24.768Z,95630.50
2023-01-19T12:28:53.218Z,95615.63
2023-01-19T12:31:22.692Z,95617.41
2023-01-19T12:33:50.111Z,95617.66
2023-01-19T12:36:16.851Z,95616.94
2023-01-19T12:39:02.821Z,95607.00
2023-01-19T12:41:35.760Z,95610.31
2023-01-19T12:44:12.004Z,95614.63
2023-01-19T12:47:06.331Z,95606.97
2023-01-19T12:49:47.453Z,95608.34
2023-01-19T12:52:34.301Z,95608.53
2023-01-19T12:55:17.369Z,95601.88
2023-01-19T12:58:01.308Z,95609.34
2023-01-19T13:00:34.304Z,95603.91
2023-01-19T13:03:16.644Z,95607.56
2023-01-19T13:05:43.497Z,95609.94
2023-01-19T13:08:10.297Z,95609.06
2023-01-19T13:11:12.397Z,95596.69
2023-01-19T13:13:48.222Z,95597.06
2023-01-19T13:16:21.386Z,95611.13
2023-01-19T13:19:06.719Z,95599.97
2023-01-19T13:21:43.637Z,95597.69
2023-01-19T13:24:22.476Z,95606.50
2023-01-19T13:26:49.273Z,95609.63
2023-01-19T13:29:35.072Z,95612.59
2023-01-19T13:32:13.530Z,95604.31
2023-01-19T13:34:52.434Z,95609.59
2023-01-19T13:37:29.630Z,95605.97
2023-01-19T13:39:57.172Z,95600.72
2023-01-19T13:42:40.535Z,95610.22
2023-01-19T13:45:36.935Z,95606.38
2023-01-19T13:48:09.124Z,95613.91
2023-01-19T13:50:39.241Z,95609.00
2023-01-19T13:53:21.204Z,95610.03
2023-01-19T13:55:48.102Z,95614.75
2023-01-19T13:58:26.019Z,95608.84
2023-01-19T14:00:53.189Z,95607.75
2023-01-19T14:03:24.035Z,95603.94
2023-01-19T14:05:53.277Z,95613.44
2023-01-19T14:08:22.036Z,95608.94
2023-01-19T14:10:56.169Z,95613.91
2023-01-19T14:13:35.293Z,95609.69
2023-01-19T14:16:10.645Z,95616.44
2023-01-19T14:18:37.563Z,95610.41
2023-01-19T14:21:09.081Z,95617.53
2023-01-19T14:23:49.894Z,95617.78
2023-01-19T14:26:48.929Z,95616.59
2023-01-19T14:29:21.487Z,95616.31
2023-01-19T14:32:06.088Z,95614.13
2023-01-19T14:35:04.609Z,95623.47
2023-01-19T14:37:34.919Z,95614.81
2023-01-19T14:40:10.826Z,95616.44
2023-01-19T14:42:45.655Z,95622.56
2023-01-19T14:45:24.247Z,95624.94
2023-01-19T14:48:04.940Z,95623.28
2023-01-19T14:50:42.813Z,95630.75
2023-01-19T14:53:24.415Z,95628.91
2023-01-19T14:56:02.602Z,95626.25
2023-01-19T14:58:32.938Z,95630.44
2023-01-19T15:01:00.094Z,95639.44
2023-01-19T15:03:43.398Z,95635.16
2023-01-19T15:06:19.055Z,95628.88
2023-01-19T15:08:47.276Z,95626.88
2023-01-19T15:11:31.528Z,95641.13
2023-01-19T15:13:59.194Z,95630.28
2023-01-19T15:16:28.110Z,95641.66
2023-01-19T15:18:55.270Z,95645.22
2023-01-19T15:21:26.320Z,95641.56
2023-01-19T15:23:54.692Z,95647.06
2023-01-19T15:26:24.691Z,95652.88
2023-01-19T15:28:52.046Z,95649.69
2023-01-19T15:31:22.635Z,95646.50
2023-01-19T15:33:50.039Z,95649.06
2023-01-19T15:36:19.894Z,95659.63
2023-01-19T15:38:47.510Z,95651.34
2023-01-19T15:41:28.557Z,95655.94
2023-01-19T15:43:55.508Z,95661.19
2023-01-19T15:46:23.879Z,95664.13
2023-01-19T15:48:51.410Z,95662.47
2023-01-19T15:51:22.034Z,95661.88
2023-01-19T15:53:49.946Z,95667.56
2023-01-19T15:56:21.891Z,95667.34
2023-01-19T15:58:49.064Z,95652.88
2023-01-19T16:01:20.402Z,95662.59
2023-01-19T16:03:47.783Z,95663.13
2023-01-19T16:06:16.502Z,95668.16
2023-01-19T16:08:43.639Z,95659.22
2023-01-19T16:11:15.758Z,95654.69
2023-01-19T16:13:46.376Z,95667.72
2023-01-19T16:16:20.383Z,95660.91
2023-01-19T16:18:47.448Z,95665.06
2023-01-19T16:21:14.733Z,95665.84
2023-01-19T16:23:41.833Z,95665.84
2023-01-19T16:26:34.743Z,95667.16
2023-01-19T16:29:10.338Z,95671.50
2023-01-19T16:31:39.179Z,95676.53
2023-01-19T16:34:06.657Z,95684.97
2023-01-19T16:36:37.073Z,95683.81
2023-01-19T16:39:11.595Z,95679.75
2023-01-19T16:41:38.669Z,95681.72
2023-01-19T16:44:06.929Z,95685.28
2023-01-19T16:46:39.362Z,95684.97
2023-01-19T16:49:11.609Z,95676.66
2023-01-19T16:51:39.034Z,95679.72
2023-01-19T16:54:06.070Z,95677.50
2023-01-19T16:56:33.009Z,95675.22
2023-01-19T16:58:59.960Z,95675.53
2023-01-19T17:01:28.880Z,95677.19
2023-01-19T17:03:56.435Z,95683.34
2023-01-19T17:06:24.666Z,95681.88
2023-01-19T17:08:52.977Z,95676.53
2023-01-19T17:11:24.411Z,95683.00
2023-01-19T17:14:00.433Z,95687.88
2023-01-19T17:16:29.838Z,95678.16
2023-01-19T17:18:58.448Z,95684.63
2023-01-19T17:21:25.605Z,95684.63
2023-01-19T17:23:55.061Z,95674.56
2023-01-19T17:26:25.150Z,95683.19
2023-01-19T17:28:52.555Z,95689.81
2023-01-19T17:31:22.102Z,95686.88
2023-01-19T17:33:50.463Z,95678.81
2023-01-19T17:36:25.189Z,95683.66
2023-01-19T17:38:58.202Z,95683.00
2023-01-19T17:41:28.577Z,95679.75
2023-01-19T17:43:55.918Z,95676.22
2023-01-19T17:46:26.264Z,95683.97
2023-01-19T17:48:55.278Z,95684.31
2023-01-19T17:51:25.746Z,95676.69
2023-01-19T17:53:53.584Z,95682.69
2023-01-19T17:56:27.326Z,95681.06
2023-01-19T17:58:54.446Z,95688.50
2023-01-19T18:01:25.648Z,95686.41
2023-01-19T18:03:53.070Z,95685.59
2023-01-19T18:06:20.654Z,95686.06
2023-01-19T18:08:48.644Z,95695.97
2023-01-19T18:11:18.057Z,95691.75
2023-01-19T18:13:47.989Z,95700.19
2023-01-19T18:16:25.635Z,95701.94
2023-01-19T18:18:54.087Z,95698.88
2023-01-19T18:21:22.736Z,95703.09
2023-01-19T18:23:50.893Z,95694.84
2023-01-19T18:26:21.521Z,95698.56
2023-01-19T18:28:49.549Z,95706.00
2023-01-19T18:31:19.004Z,95694.38
2023-01-19T18:33:47.356Z,95695.47
2023-01-19T18:36:14.909Z,95704.72
2023-01-19T18:38:42.920Z,95698.22
2023-01-19T18:41:17.679Z,95700.16
2023-01-19T18:43:45.275Z,95695.47
2023-01-19T18:46:12.703Z,95700.03
2023-01-19T18:48:40.073Z,95702.75
2023-01-19T18:51:14.545Z,95704.38
2023-01-19T18:53:42.437Z,95698.72
2023-01-19T18:56:15.634Z,95701.94
2023-01-19T18:58:43.237Z,95702.47
2023-01-19T19:01:39.725Z,95700.19
2023-01-19T19:04:08.121Z,95692.41
2023-01-19T19:06:35.734Z,95703.44
2023-01-19T19:09:03.291Z,95698.72
2023-01-19T19:11:30.217Z,95697.44
2023-01-19T19:14:02.256Z,95698.41
2023-01-19T19:16:30.449Z,95706.34
2023-01-19T19:18:57.487Z,95695.97
2023-01-19T19:21:25.515Z,95704.09
2023-01-19T19:23:54.866Z,95698.91
2023-01-19T19:26:22.563Z,95702.75
2023-01-19T19:28:49.698Z,95698.72
2023-01-19T19:31:20.498Z,95699.53
2023-01-19T19:33:48.986Z,95696.47
2023-01-19T19:36:15.936Z,95698.41
2023-01-19T19:38:44.497Z,95699.53
2023-01-19T19:41:22.386Z,95706.00
2023-01-19T19:43:50.057Z,95703.13
2023-01-19T19:46:20.079Z,95703.75
2023-01-19T19:48:51.234Z,95696.31
2023-01-19T19:51:26.918Z,95701.66
2023-01-19T19:53:57.331Z,95709.56
2023-01-19T19:56:26.283Z,95704.09
2023-01-19T19:58:56.137Z,95710.91
2023-01-19T20:01:32.587Z,95710.09
2023-01-19T20:04:07.465Z,95707.31
2023-01-19T20:06:39.731Z,95704.56
2023-01-19T20:09:09.236Z,95709.25
2023-01-19T20:11:36.570Z,95708.94
2023-01-19T20:14:08.156Z,95707.00
2023-01-19T20:16:35.562Z,95707.00
2023-01-19T20:19:02.824Z,95714.13
2023-01-19T20:21:36.179Z,95710.56
2023-01-19T20:24:08.131Z,95710.91
2023-01-19T20:26:40.147Z,95711.53
2023-01-19T20:29:07.170Z,95709.25
2023-01-19T20:31:38.350Z,95701.31
2023-01-19T20:34:08.115Z,95704.88
2023-01-19T20:36:35.610Z,95708.28
2023-01-19T20:39:08.534Z,95699.50
2023-01-19T20:41:43.232Z,95697.88
2023-01-19T20:44:16.708Z,95694.66
2023-01-19T20:46:43.700Z,95698.22
2023-01-19T20:49:10.588Z,95693.34
2023-01-19T20:51:41.516Z,95705.34
2023-01-19T20:54:08.960Z,95698.53
2023-01-19T20:56:36.867Z,95705.84
2023-01-19T20:59:03.893Z,95706.66
2023-01-19T21:01:30.801Z,95707.63
2023-01-19T21:03:57.754Z,95711.84
2023-01-19T21:06:25.197Z,95704.69
2023-01-19T21:08:52.317Z,95713.78
2023-01-19T21:11:21.277Z,95697.25
2023-01-19T21:13:50.589Z,95710.88
2023-01-19T21:16:17.618Z,95704.72
2023-01-19T21:18:44.479Z,95707.94
2023-01-19T21:21:28.408Z,95700.50
2023-01-19T21:23:57.957Z,95701.78
2023-01-19T21:26:24.869Z,95696.91
2023-01-19T21:28:51.736Z,95700.16
2023-01-19T21:31:18.801Z,95699.81
2023-01-19T21:33:45.684Z,95695.59
2023-01-19T21:36:12.829Z,95699.16
2023-01-19T21:38:39.927Z,95690.25
2023-01-19T21:41:09.769Z,95698.84
2023-01-19T21:43:38.996Z,95706.75
2023-01-19T21:46:17.948Z,95704.34
2023-01-19T21:48:45.880Z,95710.50
2023-01-19T21:51:14.361Z,95708.06
2023-01-19T21:53:41.819Z,95712.09
2023-01-19T21:56:10.618Z,95709.16
2023-01-19T21:58:38.018Z,95705.44
2023-01-19T22:01:11.014Z,95712.44
2023-01-19T22:03:38.416Z,95719.22
2023-01-19T22:06:11.588Z,95723.28
2023-01-19T22:08:39.312Z,95720.16
2023-01-19T22:11:11.683Z,95727.13
2023-01-19T22:13:39.680Z,95729.53
2023-01-19T22:16:18.558Z,95739.88
2023-01-19T22:18:50.547Z,95734.41
2023-01-19T22:21:21.270Z,95746.06
2023-01-19T22:23:53.032Z,95746.06
2023-01-19T22:26:19.992Z,95742.50
2023-01-19T22:28:47.504Z,95741.22
2023-01-19T22:31:17.301Z,95750.44
2023-01-19T22:33:45.203Z,95751.25
2023-01-19T22:36:41.611Z,95743.66
2023-01-19T22:39:11.229Z,95748.03
2023-01-19T22:41:43.195Z,95751.56
2023-01-19T22:44:22.465Z,95754.81
2023-01-19T22:46:51.141Z,95762.75
2023-01-19T22:49:18.523Z,95760.97
2023-01-19T22:51:46.368Z,95758.69
2023-01-19T22:54:13.963Z,95757.06
2023-01-19T22:56:41.843Z,95760.59
2023-01-19T22:59:09.495Z,95749.25
2023-01-19T23:01:40.380Z,95755.41
2023-01-19T23:04:11.904Z,95743.59
2023-01-19T23:06:39.055Z,95747.66
2023-01-19T23:09:12.046Z,95748.59
2023-01-19T23:11:44.904Z,95744.06
2023-01-19T23:14:18.334Z,95742.47
2023-01-19T23:16:47.042Z,95745.69
2023-01-19T23:19:14.912Z,95744.25
2023-01-19T23:21:41.938Z,95735.03
2023-01-19T23:24:09.747Z,95738.59
2023-01-19T23:26:40.257Z,95743.16
2023-01-19T23:29:17.354Z,95747.03
2023-01-19T23:31:47.583Z,95743.47
2023-01-19T23:34:15.485Z,95741.50
2023-01-19T23:36:43.473Z,95742.16
2023-01-19T23:39:20.085Z,95751.88
2023-01-19T23:41:47.492Z,95750.25
2023-01-19T23:44:14.767Z,95759.00
2023-01-19T23:46:41.794Z,95755.13
2023-01-19T23:49:08.651Z,95755.44
2023-01-19T23:51:35.813Z,95759.78
2023-01-19T23:54:03.261Z,95759.78
2023-01-19T23:56:36.348Z,95762.84
2023-01-19T23:59:10.288Z,95753.31
